createdAt,value
2022-09-21T12:07:17.398Z,21.10
2022-09-21T12:08:17.355Z,21.29
2022-09-21T12:09:17.348Z,21.52
2022-09-21T12:10:17.330Z,21.17
2022-09-21T12:11:17.317Z,21.38
2022-09-21T12:12:17.294Z,21.21
2022-09-21T12:13:17.278Z,20.79
2022-09-21T12:14:17.284Z,20.72
2022-09-21T12:15:17.307Z,20.82
2022-09-21T12:16:17.274Z,21.67
2022-09-21T12:17:17.201Z,22.43
2022-09-21T12:18:17.198Z,23.15
2022-09-21T12:19:17.190Z,22.79
2022-09-21T12:20:17.166Z,22.88
2022-09-21T12:21:17.147Z,23.60
2022-09-21T12:22:17.131Z,24.22
2022-09-21T12:23:17.107Z,24.46
2022-09-21T12:24:17.127Z,24.21
2022-09-21T12:25:17.074Z,24.65
2022-09-21T12:26:17.059Z,24.35
2022-09-21T12:27:17.053Z,24.57
2022-09-21T12:28:17.040Z,24.65
2022-09-21T12:29:17.023Z,23.70
2022-09-21T12:30:17.022Z,24.18
2022-09-21T12:31:17.006Z,24.45
2022-09-21T12:32:16.972Z,24.50
2022-09-21T12:33:16.958Z,24.39
2022-09-21T12:34:16.941Z,23.42
2022-09-21T12:35:16.950Z,22.51
2022-09-21T12:36:16.923Z,22.94
2022-09-21T12:37:16.908Z,23.15
2022-09-21T12:38:16.898Z,22.45
2022-09-21T12:39:16.881Z,22.76
2022-09-21T12:40:16.938Z,22.92
2022-09-21T12:41:16.855Z,22.97
2022-09-21T12:42:16.830Z,23.72
2022-09-21T12:43:16.818Z,24.35
2022-09-21T12:44:16.818Z,24.10
2022-09-21T12:45:16.789Z,24.80
2022-09-21T12:46:16.855Z,24.57
2022-09-21T12:47:16.773Z,24.88
2022-09-21T12:48:16.751Z,25.30
2022-09-21T12:49:16.741Z,24.84
2022-09-21T12:50:16.737Z,24.87
2022-09-21T12:51:16.728Z,24.53
2022-09-21T12:52:16.708Z,23.38
2022-09-21T12:53:17.564Z,22.97
2022-09-21T12:54:16.674Z,23.15
2022-09-21T12:55:17.539Z,23.36
2022-09-21T12:56:16.671Z,23.32
2022-09-21T12:57:38.175Z,23.69
2022-09-21T12:58:16.817Z,23.93
2022-09-21T12:59:16.617Z,23.97
2022-09-21T13:00:16.607Z,24.09
2022-09-21T13:01:16.734Z,24.08
2022-09-21T13:02:16.754Z,24.18
2022-09-21T13:03:16.558Z,24.25
2022-09-21T13:04:16.552Z,24.16
2022-09-21T13:05:16.534Z,24.50
2022-09-21T13:06:16.567Z,24.49
2022-09-21T13:07:16.528Z,24.53
2022-09-21T13:08:16.497Z,24.57
2022-09-21T13:09:16.495Z,25.08
2022-09-21T13:10:16.475Z,24.81
2022-09-21T13:11:16.459Z,24.88
2022-09-21T13:12:16.484Z,24.96
2022-09-21T13:13:16.436Z,24.08
2022-09-21T13:14:16.433Z,23.53
2022-09-21T13:15:16.411Z,23.02
2022-09-21T13:16:16.433Z,22.86
2022-09-21T13:17:16.399Z,23.20
2022-09-21T13:18:16.389Z,23.25
2022-09-21T13:19:16.374Z,23.57
2022-09-21T13:20:16.365Z,23.80
2022-09-21T13:21:16.353Z,24.28
2022-09-21T13:22:16.342Z,24.81
2022-09-21T13:23:16.344Z,24.67
2022-09-21T13:24:16.314Z,24.52
2022-09-21T13:25:16.303Z,24.65
2022-09-21T13:26:16.281Z,24.76
2022-09-21T13:27:16.310Z,25.17
2022-09-21T13:28:16.283Z,25.58
2022-09-21T13:29:16.258Z,25.91
2022-09-21T13:30:16.249Z,25.15
2022-09-21T13:31:37.000Z,24.68
2022-09-21T13:32:16.229Z,24.64
2022-09-21T13:33:16.226Z,24.08
2022-09-21T13:34:16.206Z,23.98
2022-09-21T13:35:16.182Z,24.34
2022-09-21T13:36:16.171Z,24.67
2022-09-21T13:37:16.157Z,25.14
2022-09-21T13:38:16.216Z,25.32
2022-09-21T13:39:16.146Z,25.33
2022-09-21T13:40:16.246Z,24.99
2022-09-21T13:41:16.117Z,25.28
2022-09-21T13:42:16.117Z,24.93
2022-09-21T13:43:16.094Z,24.47
2022-09-21T13:44:16.125Z,24.37
2022-09-21T13:45:16.082Z,24.37
2022-09-21T13:46:16.152Z,25.14
2022-09-21T13:47:16.052Z,25.45
2022-09-21T13:48:16.056Z,25.80
2022-09-21T13:49:16.057Z,26.37
2022-09-21T13:50:16.035Z,26.43
2022-09-21T13:51:16.022Z,26.33
2022-09-21T13:52:16.007Z,25.70
2022-09-21T13:53:16.014Z,25.27
2022-09-21T13:54:16.016Z,25.36
2022-09-21T13:55:15.979Z,25.32
2022-09-21T13:56:15.975Z,25.09
2022-09-21T13:57:15.958Z,25.13
2022-09-21T13:58:15.954Z,25.76
2022-09-21T13:59:15.947Z,25.60
2022-09-21T14:00:15.944Z,25.58
2022-09-21T14:01:42.539Z,25.57
2022-09-21T14:02:16.025Z,25.95
2022-09-21T14:03:15.909Z,25.39
2022-09-21T14:04:15.901Z,24.65
2022-09-21T14:05:15.882Z,24.68
2022-09-21T14:06:15.870Z,24.84
2022-09-21T14:07:15.862Z,25.33
2022-09-21T14:08:15.854Z,25.45
2022-09-21T14:09:15.883Z,25.35
2022-09-21T14:10:15.849Z,25.55
2022-09-21T14:11:15.823Z,25.94
2022-09-21T14:12:15.840Z,25.99
2022-09-21T14:13:15.814Z,25.80
2022-09-21T14:14:15.806Z,25.94
2022-09-21T14:15:15.808Z,26.12
2022-09-21T14:16:15.829Z,25.39
2022-09-21T14:17:15.779Z,24.93
2022-09-21T14:18:15.764Z,24.78
2022-09-21T14:19:15.752Z,25.03
2022-09-21T14:20:15.770Z,24.98
2022-09-21T14:21:15.744Z,24.62
2022-09-21T14:22:15.728Z,24.03
2022-09-21T14:23:15.726Z,23.50
2022-09-21T14:24:15.722Z,23.01
2022-09-21T14:25:15.715Z,23.16
2022-09-21T14:26:15.707Z,23.40
2022-09-21T14:27:15.684Z,23.63
2022-09-21T14:28:15.689Z,24.31
2022-09-21T14:29:15.667Z,24.64
2022-09-21T14:30:15.662Z,24.55
2022-09-21T14:31:15.775Z,24.85
2022-09-21T14:32:15.649Z,24.88
2022-09-21T14:33:15.643Z,25.32
2022-09-21T14:34:15.627Z,26.10
2022-09-21T14:35:15.628Z,25.35
2022-09-21T14:36:15.628Z,25.51
2022-09-21T14:37:15.605Z,25.61
2022-09-21T14:38:15.595Z,26.09
2022-09-21T14:39:15.587Z,25.99
2022-09-21T14:40:15.650Z,25.70
2022-09-21T14:41:17.270Z,25.91
2022-09-21T14:42:15.564Z,25.38
2022-09-21T14:43:15.580Z,25.95
2022-09-21T14:44:15.559Z,26.51
2022-09-21T14:45:15.544Z,26.23
2022-09-21T14:46:15.675Z,26.09
2022-09-21T14:47:15.537Z,26.10
2022-09-21T14:48:15.523Z,26.12
2022-09-21T14:49:15.510Z,26.36
2022-09-21T14:50:15.663Z,26.06
2022-09-21T14:51:15.506Z,26.01
2022-09-21T14:52:20.254Z,25.55
2022-09-21T14:53:15.488Z,24.85
2022-09-21T14:54:15.480Z,24.08
2022-09-21T14:55:15.470Z,23.38
2022-09-21T14:56:15.482Z,23.05
2022-09-21T14:57:15.493Z,22.72
2022-09-21T14:58:15.448Z,22.58
